sensor_id;sensor_type;location;lat;lon;timestamp;P1;durP1;ratioP1;P2;durP2;ratioP2
4553;SDS011;2289;48.316;15.174;2023-12-20T00:02:07;1.20;;;1.10;;
4553;SDS011;2289;48.316;15.174;2023-12-20T00:04:36;1.53;;;1.07;;
4553;SDS011;2289;48.316;15.174;2023-12-20T00:07:04;1.83;;;1.60;;
4553;SDS011;2289;48.316;15.174;2023-12-20T00:09:34;2.60;;;1.20;;
4553;SDS011;2289;48.316;15.174;2023-12-20T00:12:03;2.07;;;1.57;;
4553;SDS011;2289;48.316;15.174;2023-12-20T00:14:36;2.20;;;1.10;;
4553;SDS011;2289;48.316;15.174;2023-12-20T00:17:04;6.77;;;1.63;;
4553;SDS011;2289;48.316;15.174;2023-12-20T00:19:36;1.47;;;1.03;;
4553;SDS011;2289;48.316;15.174;2023-12-20T00:22:05;3.10;;;1.50;;
4553;SDS011;2289;48.316;15.174;2023-12-20T00:24:37;5.20;;;2.20;;
4553;SDS011;2289;48.316;15.174;2023-12-20T00:27:05;2.83;;;1.70;;
4553;SDS011;2289;48.316;15.174;2023-12-20T00:29:34;1.83;;;1.30;;
4553;SDS011;2289;48.316;15.174;2023-12-20T00:32:03;3.80;;;1.77;;
4553;SDS011;2289;48.316;15.174;2023-12-20T00:34:32;7.30;;;3.73;;
4553;SDS011;2289;48.316;15.174;2023-12-20T00:37:03;10.63;;;4.27;;
4553;SDS011;2289;48.316;15.174;2023-12-20T00:39:32;2.33;;;1.93;;
4553;SDS011;2289;48.316;15.174;2023-12-20T00:42:01;3.67;;;2.23;;
4553;SDS011;2289;48.316;15.174;2023-12-20T00:44:30;4.73;;;2.00;;
4553;SDS011;2289;48.316;15.174;2023-12-20T00:46:59;2.60;;;1.70;;
4553;SDS011;2289;48.316;15.174;2023-12-20T00:49:28;2.17;;;1.40;;
4553;SDS011;2289;48.316;15.174;2023-12-20T00:51:57;4.13;;;2.30;;
4553;SDS011;2289;48.316;15.174;2023-12-20T00:54:27;2.43;;;1.60;;
4553;SDS011;2289;48.316;15.174;2023-12-20T00:56:57;3.67;;;2.20;;
4553;SDS011;2289;48.316;15.174;2023-12-20T00:59:26;4.10;;;1.60;;
4553;SDS011;2289;48.316;15.174;2023-12-20T01:01:55;3.20;;;1.87;;
4553;SDS011;2289;48.316;15.174;2023-12-20T01:04:24;2.43;;;1.80;;
4553;SDS011;2289;48.316;15.174;2023-12-20T01:06:53;5.17;;;1.63;;
4553;SDS011;2289;48.316;15.174;2023-12-20T01:09:21;3.00;;;2.37;;
4553;SDS011;2289;48.316;15.174;2023-12-20T01:11:54;2.27;;;2.07;;
4553;SDS011;2289;48.316;15.174;2023-12-20T01:14:23;4.50;;;2.67;;
4553;SDS011;2289;48.316;15.174;2023-12-20T01:16:52;5.77;;;2.43;;
4553;SDS011;2289;48.316;15.174;2023-12-20T01:19:25;5.60;;;2.67;;
4553;SDS011;2289;48.316;15.174;2023-12-20T01:21:57;7.27;;;1.60;;
4553;SDS011;2289;48.316;15.174;2023-12-20T01:24:29;4.27;;;3.00;;
4553;SDS011;2289;48.316;15.174;2023-12-20T01:27:00;3.43;;;2.03;;
4553;SDS011;2289;48.316;15.174;2023-12-20T01:29:29;3.67;;;2.43;;
4553;SDS011;2289;48.316;15.174;2023-12-20T01:31:58;4.03;;;2.30;;
4553;SDS011;2289;48.316;15.174;2023-12-20T01:34:28;5.20;;;2.90;;
4553;SDS011;2289;48.316;15.174;2023-12-20T01:36:57;2.73;;;1.97;;
4553;SDS011;2289;48.316;15.174;2023-12-20T01:39:27;3.20;;;2.90;;
4553;SDS011;2289;48.316;15.174;2023-12-20T01:41:56;4.43;;;2.47;;
4553;SDS011;2289;48.316;15.174;2023-12-20T01:44:26;3.30;;;2.63;;
4553;SDS011;2289;48.316;15.174;2023-12-20T01:46:56;4.57;;;2.77;;
4553;SDS011;2289;48.316;15.174;2023-12-20T01:49:25;3.90;;;3.03;;
4553;SDS011;2289;48.316;15.174;2023-12-20T01:51:54;6.30;;;2.70;;
4553;SDS011;2289;48.316;15.174;2023-12-20T01:54:23;8.60;;;2.50;;
4553;SDS011;2289;48.316;15.174;2023-12-20T01:56:52;5.63;;;3.10;;
4553;SDS011;2289;48.316;15.174;2023-12-20T01:59:23;4.80;;;2.80;;
4553;SDS011;2289;48.316;15.174;2023-12-20T02:01:54;3.20;;;2.90;;
4553;SDS011;2289;48.316;15.174;2023-12-20T02:04:23;3.60;;;3.10;;
4553;SDS011;2289;48.316;15.174;2023-12-20T02:06:52;6.63;;;3.97;;
4553;SDS011;2289;48.316;15.174;2023-12-20T02:09:20;4.27;;;3.47;;
4553;SDS011;2289;48.316;15.174;2023-12-20T02:11:50;6.47;;;4.00;;
4553;SDS011;2289;48.316;15.174;2023-12-20T02:14:19;14.13;;;4.63;;
4553;SDS011;2289;48.316;15.174;2023-12-20T02:16:55;5.13;;;4.47;;
4553;SDS011;2289;48.316;15.174;2023-12-20T02:19:24;8.00;;;4.13;;
4553;SDS011;2289;48.316;15.174;2023-12-20T02:22:06;12.70;;;7.47;;
4553;SDS011;2289;48.316;15.174;2023-12-20T02:24:38;6.47;;;4.43;;
4553;SDS011;2289;48.316;15.174;2023-12-20T02:27:08;9.23;;;5.93;;
4553;SDS011;2289;48.316;15.174;2023-12-20T02:29:38;7.10;;;4.60;;
4553;SDS011;2289;48.316;15.174;2023-12-20T02:32:07;10.53;;;4.67;;
4553;SDS011;2289;48.316;15.174;2023-12-20T02:34:35;5.73;;;3.97;;
4553;SDS011;2289;48.316;15.174;2023-12-20T02:37:05;17.70;;;8.50;;
4553;SDS011;2289;48.316;15.174;2023-12-20T02:39:34;9.07;;;5.83;;
4553;SDS011;2289;48.316;15.174;2023-12-20T02:42:03;18.13;;;9.63;;
4553;SDS011;2289;48.316;15.174;2023-12-20T02:44:32;7.13;;;4.90;;
4553;SDS011;2289;48.316;15.174;2023-12-20T02:47:02;10.40;;;5.60;;
4553;SDS011;2289;48.316;15.174;2023-12-20T02:49:31;4.67;;;4.03;;
4553;SDS011;2289;48.316;15.174;2023-12-20T02:52:00;6.07;;;4.40;;
4553;SDS011;2289;48.316;15.174;2023-12-20T02:54:31;4.87;;;4.40;;
4553;SDS011;2289;48.316;15.174;2023-12-20T02:57:00;8.43;;;4.60;;
4553;SDS011;2289;48.316;15.174;2023-12-20T02:59:28;4.60;;;3.77;;
4553;SDS011;2289;48.316;15.174;2023-12-20T03:01:57;5.60;;;3.50;;
4553;SDS011;2289;48.316;15.174;2023-12-20T03:04:29;4.73;;;3.37;;
4553;SDS011;2289;48.316;15.174;2023-12-20T03:06:58;4.57;;;3.67;;
4553;SDS011;2289;48.316;15.174;2023-12-20T03:09:31;4.30;;;3.40;;
4553;SDS011;2289;48.316;15.174;2023-12-20T03:12:20;4.30;;;3.43;;
4553;SDS011;2289;48.316;15.174;2023-12-20T03:14:49;5.80;;;4.70;;
4553;SDS011;2289;48.316;15.174;2023-12-20T03:17:18;7.60;;;4.37;;
4553;SDS011;2289;48.316;15.174;2023-12-20T03:19:48;4.80;;;3.60;;
4553;SDS011;2289;48.316;15.174;2023-12-20T03:22:17;9.27;;;4.47;;
4553;SDS011;2289;48.316;15.174;2023-12-20T03:24:48;6.50;;;4.07;;
4553;SDS011;2289;48.316;15.174;2023-12-20T03:27:29;6.10;;;3.33;;
4553;SDS011;2289;48.316;15.174;2023-12-20T03:29:57;5.20;;;3.70;;
4553;SDS011;2289;48.316;15.174;2023-12-20T03:32:26;4.73;;;3.40;;
4553;SDS011;2289;48.316;15.174;2023-12-20T03:34:56;6.10;;;4.33;;
4553;SDS011;2289;48.316;15.174;2023-12-20T03:37:25;4.67;;;4.03;;
4553;SDS011;2289;48.316;15.174;2023-12-20T03:39:55;11.10;;;4.10;;
4553;SDS011;2289;48.316;15.174;2023-12-20T03:42:24;6.00;;;3.97;;
4553;SDS011;2289;48.316;15.174;2023-12-20T03:44:53;3.77;;;3.37;;
4553;SDS011;2289;48.316;15.174;2023-12-20T03:47:22;6.40;;;3.50;;
4553;SDS011;2289;48.316;15.174;2023-12-20T03:49:51;6.20;;;3.90;;
4553;SDS011;2289;48.316;15.174;2023-12-20T03:52:20;5.30;;;3.87;;
4553;SDS011;2289;48.316;15.174;2023-12-20T03:54:50;5.67;;;4.10;;
4553;SDS011;2289;48.316;15.174;2023-12-20T03:57:20;6.03;;;4.90;;
4553;SDS011;2289;48.316;15.174;2023-12-20T03:59:49;6.23;;;4.50;;
4553;SDS011;2289;48.316;15.174;2023-12-20T04:02:18;5.97;;;4.13;;
4553;SDS011;2289;48.316;15.174;2023-12-20T04:04:46;5.17;;;4.57;;
4553;SDS011;2289;48.316;15.174;2023-12-20T04:07:16;5.90;;;4.30;;
4553;SDS011;2289;48.316;15.174;2023-12-20T04:09:45;6.90;;;4.90;;
4553;SDS011;2289;48.316;15.174;2023-12-20T04:12:15;5.90;;;4.20;;
4553;SDS011;2289;48.316;15.174;2023-12-20T04:14:45;5.80;;;4.63;;
4553;SDS011;2289;48.316;15.174;2023-12-20T04:17:14;7.07;;;4.53;;
4553;SDS011;2289;48.316;15.174;2023-12-20T04:19:43;11.00;;;4.50;;
4553;SDS011;2289;48.316;15.174;2023-12-20T04:22:12;6.13;;;4.43;;
4553;SDS011;2289;48.316;15.174;2023-12-20T04:24:44;8.00;;;5.43;;
4553;SDS011;2289;48.316;15.174;2023-12-20T04:27:13;7.13;;;4.80;;
4553;SDS011;2289;48.316;15.174;2023-12-20T04:29:46;5.50;;;4.83;;
4553;SDS011;2289;48.316;15.174;2023-12-20T04:32:16;10.90;;;5.67;;
4553;SDS011;2289;48.316;15.174;2023-12-20T04:34:45;8.77;;;4.90;;
4553;SDS011;2289;48.316;15.174;2023-12-20T04:37:14;7.30;;;4.60;;
4553;SDS011;2289;48.316;15.174;2023-12-20T04:39:42;5.77;;;4.00;;
4553;SDS011;2289;48.316;15.174;2023-12-20T04:42:11;7.77;;;4.10;;
4553;SDS011;2289;48.316;15.174;2023-12-20T04:44:39;5.57;;;4.60;;
4553;SDS011;2289;48.316;15.174;2023-12-20T04:47:12;4.87;;;3.80;;
4553;SDS011;2289;48.316;15.174;2023-12-20T04:49:41;10.23;;;4.70;;
4553;SDS011;2289;48.316;15.174;2023-12-20T04:52:09;4.30;;;4.00;;
4553;SDS011;2289;48.316;15.174;2023-12-20T04:54:38;4.87;;;4.27;;
4553;SDS011;2289;48.316;15.174;2023-12-20T04:57:10;7.53;;;4.50;;
4553;SDS011;2289;48.316;15.174;2023-12-20T04:59:39;8.60;;;4.13;;
4553;SDS011;2289;48.316;15.174;2023-12-20T05:02:09;10.40;;;5.30;;
4553;SDS011;2289;48.316;15.174;2023-12-20T05:04:40;6.63;;;4.90;;
4553;SDS011;2289;48.316;15.174;2023-12-20T05:07:11;4.30;;;3.90;;
4553;SDS011;2289;48.316;15.174;2023-12-20T05:09:39;5.53;;;4.00;;
4553;SDS011;2289;48.316;15.174;2023-12-20T05:12:08;8.33;;;4.80;;
4553;SDS011;2289;48.316;15.174;2023-12-20T05:14:36;5.60;;;4.00;;
4553;SDS011;2289;48.316;15.174;2023-12-20T05:17:05;6.00;;;4.30;;
4553;SDS011;2289;48.316;15.174;2023-12-20T05:19:34;5.93;;;3.50;;
4553;SDS011;2289;48.316;15.174;2023-12-20T05:22:04;5.00;;;4.00;;
4553;SDS011;2289;48.316;15.174;2023-12-20T05:24:33;5.17;;;3.57;;
4553;SDS011;2289;48.316;15.174;2023-12-20T05:27:02;4.53;;;4.13;;
4553;SDS011;2289;48.316;15.174;2023-12-20T05:29:31;5.90;;;4.50;;
4553;SDS011;2289;48.316;15.174;2023-12-20T05:32:01;5.90;;;3.90;;
4553;SDS011;2289;48.316;15.174;2023-12-20T05:34:31;5.47;;;3.97;;
4553;SDS011;2289;48.316;15.174;2023-12-20T05:37:00;5.77;;;4.30;;
4553;SDS011;2289;48.316;15.174;2023-12-20T05:39:31;3.97;;;3.37;;
4553;SDS011;2289;48.316;15.174;2023-12-20T05:42:00;5.40;;;3.13;;
4553;SDS011;2289;48.316;15.174;2023-12-20T05:44:28;7.67;;;4.83;;
4553;SDS011;2289;48.316;15.174;2023-12-20T05:46:57;5.60;;;3.50;;
4553;SDS011;2289;48.316;15.174;2023-12-20T05:49:26;7.10;;;3.80;;
4553;SDS011;2289;48.316;15.174;2023-12-20T05:51:55;6.90;;;3.67;;
4553;SDS011;2289;48.316;15.174;2023-12-20T05:54:24;4.33;;;3.93;;
4553;SDS011;2289;48.316;15.174;2023-12-20T05:56:55;9.03;;;5.20;;
4553;SDS011;2289;48.316;15.174;2023-12-20T05:59:23;5.37;;;3.70;;
4553;SDS011;2289;48.316;15.174;2023-12-20T06:01:54;9.90;;;4.73;;
4553;SDS011;2289;48.316;15.174;2023-12-20T06:04:23;7.77;;;4.40;;
4553;SDS011;2289;48.316;15.174;2023-12-20T06:06:54;5.90;;;4.10;;
4553;SDS011;2289;48.316;15.174;2023-12-20T06:09:23;5.10;;;3.67;;
4553;SDS011;2289;48.316;15.174;2023-12-20T06:11:52;5.33;;;4.17;;
4553;SDS011;2289;48.316;15.174;2023-12-20T06:14:22;4.60;;;3.30;;
4553;SDS011;2289;48.316;15.174;2023-12-20T06:16:51;6.40;;;3.83;;
4553;SDS011;2289;48.316;15.174;2023-12-20T06:19:20;8.80;;;3.00;;
4553;SDS011;2289;48.316;15.174;2023-12-20T06:21:49;4.63;;;3.13;;
4553;SDS011;2289;48.316;15.174;2023-12-20T06:24:17;7.17;;;3.37;;
4553;SDS011;2289;48.316;15.174;2023-12-20T06:26:46;7.30;;;3.00;;
4553;SDS011;2289;48.316;15.174;2023-12-20T06:29:18;4.50;;;3.50;;
4553;SDS011;2289;48.316;15.174;2023-12-20T06:31:48;6.40;;;3.43;;
4553;SDS011;2289;48.316;15.174;2023-12-20T06:34:17;5.63;;;3.30;;
4553;SDS011;2289;48.316;15.174;2023-12-20T06:36:45;4.70;;;3.60;;
4553;SDS011;2289;48.316;15.174;2023-12-20T06:39:14;5.10;;;2.90;;
4553;SDS011;2289;48.316;15.174;2023-12-20T06:41:42;7.50;;;3.83;;
4553;SDS011;2289;48.316;15.174;2023-12-20T06:44:11;4.80;;;4.07;;
4553;SDS011;2289;48.316;15.174;2023-12-20T06:46:44;6.40;;;3.37;;
4553;SDS011;2289;48.316;15.174;2023-12-20T06:49:14;5.47;;;3.07;;
4553;SDS011;2289;48.316;15.174;2023-12-20T06:51:45;4.20;;;3.50;;
4553;SDS011;2289;48.316;15.174;2023-12-20T06:54:14;4.47;;;3.00;;
4553;SDS011;2289;48.316;15.174;2023-12-20T06:56:45;4.57;;;3.13;;
4553;SDS011;2289;48.316;15.174;2023-12-20T06:59:13;4.23;;;3.57;;
4553;SDS011;2289;48.316;15.174;2023-12-20T07:01:47;4.30;;;3.03;;
4553;SDS011;2289;48.316;15.174;2023-12-20T07:04:17;4.60;;;3.67;;
4553;SDS011;2289;48.316;15.174;2023-12-20T07:06:49;4.00;;;3.13;;
4553;SDS011;2289;48.316;15.174;2023-12-20T07:09:25;6.67;;;2.93;;
4553;SDS011;2289;48.316;15.174;2023-12-20T07:11:53;4.50;;;3.40;;
4553;SDS011;2289;48.316;15.174;2023-12-20T07:14:22;7.90;;;3.30;;
4553;SDS011;2289;48.316;15.174;2023-12-20T07:16:51;2.90;;;2.60;;
4553;SDS011;2289;48.316;15.174;2023-12-20T07:19:20;4.13;;;3.30;;
4553;SDS011;2289;48.316;15.174;2023-12-20T07:21:50;3.50;;;2.80;;
4553;SDS011;2289;48.316;15.174;2023-12-20T07:24:19;3.03;;;2.40;;
4553;SDS011;2289;48.316;15.174;2023-12-20T07:26:47;4.33;;;2.30;;
4553;SDS011;2289;48.316;15.174;2023-12-20T07:29:17;3.70;;;2.97;;
4553;SDS011;2289;48.316;15.174;2023-12-20T07:31:46;4.80;;;2.67;;
4553;SDS011;2289;48.316;15.174;2023-12-20T07:34:14;3.70;;;2.60;;
4553;SDS011;2289;48.316;15.174;2023-12-20T07:36:46;3.43;;;2.53;;
4553;SDS011;2289;48.316;15.174;2023-12-20T07:39:19;2.40;;;2.13;;
4553;SDS011;2289;48.316;15.174;2023-12-20T07:41:51;2.00;;;1.83;;
4553;SDS011;2289;48.316;15.174;2023-12-20T07:44:20;5.80;;;2.17;;
4553;SDS011;2289;48.316;15.174;2023-12-20T07:46:48;4.13;;;2.57;;
4553;SDS011;2289;48.316;15.174;2023-12-20T07:49:17;2.20;;;2.10;;
4553;SDS011;2289;48.316;15.174;2023-12-20T07:51:48;3.47;;;1.90;;
4553;SDS011;2289;48.316;15.174;2023-12-20T07:54:17;1.60;;;1.50;;
4553;SDS011;2289;48.316;15.174;2023-12-20T07:56:45;2.13;;;1.60;;
4553;SDS011;2289;48.316;15.174;2023-12-20T07:59:14;2.67;;;1.70;;
4553;SDS011;2289;48.316;15.174;2023-12-20T08:01:55;2.20;;;2.07;;
4553;SDS011;2289;48.316;15.174;2023-12-20T08:04:25;2.20;;;1.40;;
4553;SDS011;2289;48.316;15.174;2023-12-20T08:06:56;3.43;;;2.30;;
4553;SDS011;2289;48.316;15.174;2023-12-20T08:09:25;1.50;;;1.40;;
4553;SDS011;2289;48.316;15.174;2023-12-20T08:11:54;1.57;;;1.23;;
4553;SDS011;2289;48.316;15.174;2023-12-20T08:14:22;2.10;;;1.53;;
4553;SDS011;2289;48.316;15.174;2023-12-20T08:16:51;2.00;;;1.87;;
4553;SDS011;2289;48.316;15.174;2023-12-20T08:19:19;2.20;;;1.53;;
4553;SDS011;2289;48.316;15.174;2023-12-20T08:21:49;2.20;;;2.00;;
4553;SDS011;2289;48.316;15.174;2023-12-20T08:24:19;2.47;;;1.60;;
4553;SDS011;2289;48.316;15.174;2023-12-20T08:26:47;1.70;;;1.53;;
4553;SDS011;2289;48.316;15.174;2023-12-20T08:29:16;1.97;;;1.77;;
4553;SDS011;2289;48.316;15.174;2023-12-20T08:31:44;4.30;;;3.20;;
4553;SDS011;2289;48.316;15.174;2023-12-20T08:34:15;1.83;;;1.47;;
4553;SDS011;2289;48.316;15.174;2023-12-20T08:36:47;8.40;;;4.23;;
4553;SDS011;2289;48.316;15.174;2023-12-20T08:39:16;5.37;;;2.30;;
4553;SDS011;2289;48.316;15.174;2023-12-20T08:41:49;18.90;;;8.37;;
4553;SDS011;2289;48.316;15.174;2023-12-20T08:44:17;2.83;;;2.60;;
4553;SDS011;2289;48.316;15.174;2023-12-20T08:46:46;12.83;;;5.67;;
4553;SDS011;2289;48.316;15.174;2023-12-20T08:49:15;1.40;;;1.30;;
4553;SDS011;2289;48.316;15.174;2023-12-20T08:51:43;3.63;;;2.63;;
4553;SDS011;2289;48.316;15.174;2023-12-20T08:54:12;3.27;;;2.37;;
4553;SDS011;2289;48.316;15.174;2023-12-20T08:56:42;4.10;;;1.53;;
4553;SDS011;2289;48.316;15.174;2023-12-20T08:59:13;1.10;;;1.10;;
4553;SDS011;2289;48.316;15.174;2023-12-20T09:01:41;0.90;;;0.90;;
4553;SDS011;2289;48.316;15.174;2023-12-20T09:04:10;5.17;;;2.43;;
4553;SDS011;2289;48.316;15.174;2023-12-20T09:06:39;3.70;;;2.43;;
4553;SDS011;2289;48.316;15.174;2023-12-20T09:09:08;3.33;;;1.53;;
4553;SDS011;2289;48.316;15.174;2023-12-20T09:11:43;3.53;;;1.50;;
4553;SDS011;2289;48.316;15.174;2023-12-20T09:14:15;2.27;;;1.60;;
4553;SDS011;2289;48.316;15.174;2023-12-20T09:16:46;1.37;;;1.27;;
4553;SDS011;2289;48.316;15.174;2023-12-20T09:19:18;1.60;;;1.40;;
4553;SDS011;2289;48.316;15.174;2023-12-20T09:21:47;5.77;;;3.90;;
4553;SDS011;2289;48.316;15.174;2023-12-20T09:24:16;1.73;;;1.30;;
4553;SDS011;2289;48.316;15.174;2023-12-20T09:26:45;1.23;;;0.93;;
4553;SDS011;2289;48.316;15.174;2023-12-20T09:29:16;1.07;;;0.90;;
4553;SDS011;2289;48.316;15.174;2023-12-20T09:31:46;0.77;;;0.70;;
4553;SDS011;2289;48.316;15.174;2023-12-20T09:34:18;0.90;;;0.90;;
4553;SDS011;2289;48.316;15.174;2023-12-20T09:36:51;1.40;;;1.07;;
4553;SDS011;2289;48.316;15.174;2023-12-20T09:39:20;2.17;;;1.67;;
4553;SDS011;2289;48.316;15.174;2023-12-20T09:41:54;1.10;;;1.00;;
4553;SDS011;2289;48.316;15.174;2023-12-20T09:44:30;3.63;;;1.77;;
4553;SDS011;2289;48.316;15.174;2023-12-20T09:47:01;2.13;;;1.10;;
4553;SDS011;2289;48.316;15.174;2023-12-20T09:49:32;3.93;;;2.77;;
4553;SDS011;2289;48.316;15.174;2023-12-20T09:52:01;6.67;;;3.53;;
4553;SDS011;2289;48.316;15.174;2023-12-20T09:54:32;2.00;;;1.40;;
4553;SDS011;2289;48.316;15.174;2023-12-20T09:57:01;1.30;;;1.20;;
4553;SDS011;2289;48.316;15.174;2023-12-20T09:59:32;2.17;;;1.97;;
4553;SDS011;2289;48.316;15.174;2023-12-20T10:02:02;1.53;;;1.43;;
4553;SDS011;2289;48.316;15.174;2023-12-20T10:04:34;1.47;;;1.37;;
4553;SDS011;2289;48.316;15.174;2023-12-20T10:07:13;1.50;;;1.40;;
4553;SDS011;2289;48.316;15.174;2023-12-20T10:09:45;3.73;;;2.23;;
4553;SDS011;2289;48.316;15.174;2023-12-20T10:12:18;3.73;;;2.93;;
4553;SDS011;2289;48.316;15.174;2023-12-20T10:14:49;1.80;;;1.67;;
4553;SDS011;2289;48.316;15.174;2023-12-20T10:17:19;2.90;;;1.83;;
4553;SDS011;2289;48.316;15.174;2023-12-20T10:19:50;3.63;;;2.70;;
4553;SDS011;2289;48.316;15.174;2023-12-20T10:22:19;2.33;;;1.67;;
4553;SDS011;2289;48.316;15.174;2023-12-20T10:24:49;2.10;;;1.50;;
4553;SDS011;2289;48.316;15.174;2023-12-20T10:27:17;2.60;;;2.03;;
4553;SDS011;2289;48.316;15.174;2023-12-20T10:29:58;1.70;;;1.60;;
4553;SDS011;2289;48.316;15.174;2023-12-20T10:32:27;4.67;;;3.07;;
4553;SDS011;2289;48.316;15.174;2023-12-20T10:34:57;2.20;;;1.33;;
4553;SDS011;2289;48.316;15.174;2023-12-20T10:37:27;9.10;;;6.33;;
4553;SDS011;2289;48.316;15.174;2023-12-20T10:39:57;2.40;;;2.20;;
4553;SDS011;2289;48.316;15.174;2023-12-20T10:42:27;1.80;;;1.47;;
4553;SDS011;2289;48.316;15.174;2023-12-20T10:45:00;1.67;;;1.57;;
4553;SDS011;2289;48.316;15.174;2023-12-20T10:47:30;1.57;;;1.37;;
4553;SDS011;2289;48.316;15.174;2023-12-20T10:49:59;1.20;;;1.10;;
4553;SDS011;2289;48.316;15.174;2023-12-20T10:52:29;1.00;;;1.00;;
4553;SDS011;2289;48.316;15.174;2023-12-20T10:54:59;1.57;;;1.00;;
4553;SDS011;2289;48.316;15.174;2023-12-20T10:57:28;1.10;;;1.00;;
4553;SDS011;2289;48.316;15.174;2023-12-20T11:00:01;1.43;;;1.33;;
4553;SDS011;2289;48.316;15.174;2023-12-20T11:02:32;0.80;;;0.80;;
4553;SDS011;2289;48.316;15.174;2023-12-20T11:05:04;0.90;;;0.90;;
4553;SDS011;2289;48.316;15.174;2023-12-20T11:07:38;2.80;;;0.97;;
4553;SDS011;2289;48.316;15.174;2023-12-20T11:10:14;0.90;;;0.90;;
4553;SDS011;2289;48.316;15.174;2023-12-20T11:12:49;0.77;;;0.73;;
4553;SDS011;2289;48.316;15.174;2023-12-20T11:15:23;0.77;;;0.77;;
4553;SDS011;2289;48.316;15.174;2023-12-20T11:17:55;1.10;;;1.00;;
4553;SDS011;2289;48.316;15.174;2023-12-20T11:20:24;0.93;;;0.70;;
4553;SDS011;2289;48.316;15.174;2023-12-20T11:22:54;1.93;;;1.83;;
4553;SDS011;2289;48.316;15.174;2023-12-20T11:25:25;0.93;;;0.80;;
4553;SDS011;2289;48.316;15.174;2023-12-20T11:28:07;0.80;;;0.80;;
4553;SDS011;2289;48.316;15.174;2023-12-20T11:30:42;0.83;;;0.80;;
4553;SDS011;2289;48.316;15.174;2023-12-20T11:33:14;1.00;;;1.00;;
4553;SDS011;2289;48.316;15.174;2023-12-20T11:35:45;0.90;;;0.90;;
4553;SDS011;2289;48.316;15.174;2023-12-20T11:38:16;0.80;;;0.80;;
4553;SDS011;2289;48.316;15.174;2023-12-20T11:40:47;0.93;;;0.83;;
4553;SDS011;2289;48.316;15.174;2023-12-20T11:43:29;1.00;;;0.90;;
4553;SDS011;2289;48.316;15.174;2023-12-20T11:46:04;0.77;;;0.77;;
4553;SDS011;2289;48.316;15.174;2023-12-20T11:48:37;2.00;;;1.27;;
4553;SDS011;2289;48.316;15.174;2023-12-20T11:51:10;3.90;;;1.40;;
4553;SDS011;2289;48.316;15.174;2023-12-20T11:53:39;3.60;;;1.67;;
4553;SDS011;2289;48.316;15.174;2023-12-20T11:56:09;1.70;;;1.40;;
4553;SDS011;2289;48.316;15.174;2023-12-20T11:58:39;4.80;;;2.77;;
4553;SDS011;2289;48.316;15.174;2023-12-20T12:01:10;1.50;;;1.40;;
4553;SDS011;2289;48.316;15.174;2023-12-20T12:03:39;1.10;;;0.97;;
4553;SDS011;2289;48.316;15.174;2023-12-20T12:06:10;2.53;;;1.00;;
4553;SDS011;2289;48.316;15.174;2023-12-20T12:08:40;2.43;;;1.73;;
4553;SDS011;2289;48.316;15.174;2023-12-20T12:11:10;1.33;;;1.23;;
4553;SDS011;2289;48.316;15.174;2023-12-20T12:13:39;1.20;;;1.10;;
4553;SDS011;2289;48.316;15.174;2023-12-20T12:16:12;1.20;;;1.10;;
4553;SDS011;2289;48.316;15.174;2023-12-20T12:18:43;2.37;;;1.63;;
4553;SDS011;2289;48.316;15.174;2023-12-20T12:21:18;3.70;;;2.70;;
4553;SDS011;2289;48.316;15.174;2023-12-20T12:24:06;2.87;;;2.40;;
4553;SDS011;2289;48.316;15.174;2023-12-20T12:26:35;2.07;;;1.70;;
4553;SDS011;2289;48.316;15.174;2023-12-20T12:29:06;0.90;;;0.90;;
4553;SDS011;2289;48.316;15.174;2023-12-20T12:31:38;1.17;;;0.97;;
4553;SDS011;2289;48.316;15.174;2023-12-20T12:34:10;2.27;;;1.10;;
4553;SDS011;2289;48.316;15.174;2023-12-20T12:36:41;2.47;;;1.10;;
4553;SDS011;2289;48.316;15.174;2023-12-20T12:39:13;1.40;;;1.27;;
4553;SDS011;2289;48.316;15.174;2023-12-20T12:41:43;0.70;;;0.70;;
4553;SDS011;2289;48.316;15.174;2023-12-20T12:44:12;1.60;;;0.80;;
4553;SDS011;2289;48.316;15.174;2023-12-20T12:46:45;0.67;;;0.67;;
4553;SDS011;2289;48.316;15.174;2023-12-20T12:49:17;0.70;;;0.70;;
4553;SDS011;2289;48.316;15.174;2023-12-20T12:51:46;0.80;;;0.80;;
4553;SDS011;2289;48.316;15.174;2023-12-20T12:54:18;1.57;;;1.17;;
4553;SDS011;2289;48.316;15.174;2023-12-20T12:56:49;0.70;;;0.70;;
4553;SDS011;2289;48.316;15.174;2023-12-20T12:59:19;0.70;;;0.70;;
4553;SDS011;2289;48.316;15.174;2023-12-20T13:01:50;0.93;;;0.80;;
4553;SDS011;2289;48.316;15.174;2023-12-20T13:04:25;0.70;;;0.60;;
4553;SDS011;2289;48.316;15.174;2023-12-20T13:06:54;0.80;;;0.80;;
4553;SDS011;2289;48.316;15.174;2023-12-20T13:09:24;0.70;;;0.70;;
4553;SDS011;2289;48.316;15.174;2023-12-20T13:11:54;0.70;;;0.60;;
4553;SDS011;2289;48.316;15.174;2023-12-20T13:14:23;1.00;;;0.70;;
4553;SDS011;2289;48.316;15.174;2023-12-20T13:16:53;1.10;;;0.70;;
4553;SDS011;2289;48.316;15.174;2023-12-20T13:19:23;0.90;;;0.80;;
4553;SDS011;2289;48.316;15.174;2023-12-20T13:21:52;0.70;;;0.70;;
4553;SDS011;2289;48.316;15.174;2023-12-20T13:24:21;1.00;;;0.73;;
4553;SDS011;2289;48.316;15.174;2023-12-20T13:26:50;0.90;;;0.90;;
4553;SDS011;2289;48.316;15.174;2023-12-20T13:29:20;1.00;;;0.90;;
4553;SDS011;2289;48.316;15.174;2023-12-20T13:31:48;1.47;;;0.90;;
4553;SDS011;2289;48.316;15.174;2023-12-20T13:34:19;1.10;;;1.00;;
4553;SDS011;2289;48.316;15.174;2023-12-20T13:36:48;2.33;;;1.90;;
4553;SDS011;2289;48.316;15.174;2023-12-20T13:39:18;4.43;;;2.27;;
4553;SDS011;2289;48.316;15.174;2023-12-20T13:41:46;3.37;;;1.77;;
4553;SDS011;2289;48.316;15.174;2023-12-20T13:44:17;1.93;;;1.40;;
4553;SDS011;2289;48.316;15.174;2023-12-20T13:46:46;2.00;;;1.50;;
4553;SDS011;2289;48.316;15.174;2023-12-20T13:49:17;0.70;;;0.70;;
4553;SDS011;2289;48.316;15.174;2023-12-20T13:51:48;4.43;;;1.80;;
4553;SDS011;2289;48.316;15.174;2023-12-20T13:54:17;2.40;;;1.57;;
4553;SDS011;2289;48.316;15.174;2023-12-20T13:56:48;7.10;;;2.90;;
4553;SDS011;2289;48.316;15.174;2023-12-20T13:59:35;1.37;;;1.23;;
4553;SDS011;2289;48.316;15.174;2023-12-20T14:02:04;9.67;;;5.00;;
4553;SDS011;2289;48.316;15.174;2023-12-20T14:04:34;3.40;;;1.70;;
4553;SDS011;2289;48.316;15.174;2023-12-20T14:07:09;3.10;;;1.10;;
4553;SDS011;2289;48.316;15.174;2023-12-20T14:09:39;2.20;;;1.37;;
4553;SDS011;2289;48.316;15.174;2023-12-20T14:12:13;2.70;;;1.80;;
4553;SDS011;2289;48.316;15.174;2023-12-20T14:14:44;1.03;;;0.93;;
4553;SDS011;2289;48.316;15.174;2023-12-20T14:17:14;6.57;;;2.83;;
4553;SDS011;2289;48.316;15.174;2023-12-20T14:19:47;4.47;;;2.27;;
4553;SDS011;2289;48.316;15.174;2023-12-20T14:22:16;9.83;;;5.20;;
4553;SDS011;2289;48.316;15.174;2023-12-20T14:24:45;0.97;;;0.80;;
4553;SDS011;2289;48.316;15.174;2023-12-20T14:27:14;4.87;;;2.50;;
4553;SDS011;2289;48.316;15.174;2023-12-20T14:29:43;4.77;;;3.07;;
4553;SDS011;2289;48.316;15.174;2023-12-20T14:32:11;3.70;;;1.67;;
4553;SDS011;2289;48.316;15.174;2023-12-20T14:34:44;3.37;;;1.67;;
4553;SDS011;2289;48.316;15.174;2023-12-20T14:37:14;1.07;;;1.00;;
4553;SDS011;2289;48.316;15.174;2023-12-20T14:39:46;0.97;;;0.93;;
4553;SDS011;2289;48.316;15.174;2023-12-20T14:42:14;0.97;;;0.93;;
4553;SDS011;2289;48.316;15.174;2023-12-20T14:44:46;2.23;;;1.00;;
4553;SDS011;2289;48.316;15.174;2023-12-20T14:47:15;0.80;;;0.80;;
4553;SDS011;2289;48.316;15.174;2023-12-20T14:49:44;0.70;;;0.70;;
4553;SDS011;2289;48.316;15.174;2023-12-20T14:52:19;1.30;;;1.20;;
4553;SDS011;2289;48.316;15.174;2023-12-20T14:54:47;0.93;;;0.80;;
4553;SDS011;2289;48.316;15.174;2023-12-20T14:57:16;0.80;;;0.80;;
4553;SDS011;2289;48.316;15.174;2023-12-20T14:59:46;2.50;;;2.30;;
4553;SDS011;2289;48.316;15.174;2023-12-20T15:02:15;1.07;;;0.97;;
4553;SDS011;2289;48.316;15.174;2023-12-20T15:04:45;1.20;;;1.10;;
4553;SDS011;2289;48.316;15.174;2023-12-20T15:07:15;2.07;;;1.00;;
4553;SDS011;2289;48.316;15.174;2023-12-20T15:09:45;1.23;;;1.00;;
4553;SDS011;2289;48.316;15.174;2023-12-20T15:12:14;1.00;;;0.90;;
4553;SDS011;2289;48.316;15.174;2023-12-20T15:14:46;1.23;;;1.00;;
4553;SDS011;2289;48.316;15.174;2023-12-20T15:17:14;1.00;;;0.80;;
4553;SDS011;2289;48.316;15.174;2023-12-20T15:19:42;1.70;;;1.33;;